createdAt,value
2018-08-17T00:01:14.856Z,68.41
2018-08-17T00:04:18.090Z,67.64
2018-08-17T00:07:21.335Z,67.52
2018-08-17T00:10:24.563Z,68.86
2018-08-17T00:13:27.724Z,68.35
2018-08-17T00:16:30.933Z,67.72
2018-08-17T00:19:34.185Z,67.69
2018-08-17T00:22:37.384Z,67.27
2018-08-17T00:25:40.600Z,68.35
2018-08-17T00:28:43.864Z,67.85
2018-08-17T00:31:47.114Z,67.59
2018-08-17T00:34:50.315Z,67.55
2018-08-17T00:37:58.276Z,68.22
2018-08-17T00:41:01.529Z,67.65
2018-08-17T00:44:04.834Z,68.58
2018-08-17T00:47:08.113Z,68.33
2018-08-17T00:50:11.297Z,68.51
2018-08-17T00:53:14.474Z,68.55
2018-08-17T00:56:17.782Z,67.90
2018-08-17T00:59:21.047Z,68.34
2018-08-17T01:02:24.260Z,67.90
2018-08-17T01:05:27.537Z,66.63
2018-08-17T01:08:30.760Z,68.33
2018-08-17T01:11:34.068Z,67.87
2018-08-17T01:14:37.330Z,68.33
2018-08-17T01:17:40.786Z,68.63
2018-08-17T01:20:44.054Z,68.82
2018-08-17T01:23:47.274Z,68.77
2018-08-17T01:26:50.541Z,68.24
2018-08-17T01:29:53.787Z,67.94
2018-08-17T01:32:56.974Z,68.01
2018-08-17T01:36:00.147Z,68.07
2018-08-17T01:39:04.424Z,68.10
2018-08-17T01:42:07.637Z,68.27
2018-08-17T01:45:11.181Z,67.75
2018-08-17T01:48:14.259Z,68.14
2018-08-17T01:51:17.382Z,69.31
2018-08-17T01:54:20.514Z,69.05
2018-08-17T01:57:23.795Z,69.69
2018-08-17T02:00:26.942Z,69.21
2018-08-17T02:03:30.106Z,69.03
2018-08-17T02:06:33.192Z,68.88
2018-08-17T02:09:36.330Z,68.46
2018-08-17T02:12:39.799Z,68.90
2018-08-17T02:15:42.929Z,69.24
2018-08-17T02:18:46.039Z,69.39
2018-08-17T02:21:49.137Z,69.60
2018-08-17T02:24:52.252Z,69.71
2018-08-17T02:27:55.490Z,70.35
2018-08-17T02:30:58.863Z,70.38
2018-08-17T02:34:01.958Z,70.40
2018-08-17T02:37:05.088Z,71.06
2018-08-17T02:40:08.259Z,70.20
2018-08-17T02:43:11.382Z,69.84
2018-08-17T02:46:14.560Z,69.59
2018-08-17T02:49:17.619Z,68.98
2018-08-17T02:52:20.789Z,69.33
2018-08-17T02:55:23.814Z,68.88
2018-08-17T02:58:26.987Z,68.79
2018-08-17T03:01:30.092Z,69.52
2018-08-17T03:04:33.150Z,68.75
2018-08-17T03:07:39.163Z,68.48
2018-08-17T03:10:42.263Z,68.59
2018-08-17T03:13:45.408Z,68.95
2018-08-17T03:16:48.492Z,69.66
2018-08-17T03:19:51.632Z,69.62
2018-08-17T03:22:54.701Z,69.39
2018-08-17T03:25:57.893Z,69.27
2018-08-17T03:29:01.049Z,69.08
2018-08-17T03:32:04.125Z,69.53
2018-08-17T03:35:07.249Z,68.85
2018-08-17T03:38:10.461Z,68.35
2018-08-17T03:41:13.509Z,68.84
2018-08-17T03:44:16.578Z,68.03
2018-08-17T03:47:19.685Z,68.56
2018-08-17T03:50:22.825Z,68.10
2018-08-17T03:53:25.929Z,68.31
2018-08-17T03:56:28.991Z,67.95
2018-08-17T03:59:32.040Z,67.84
2018-08-17T04:02:35.431Z,68.23
2018-08-17T04:05:38.831Z,68.92
2018-08-17T04:08:41.948Z,68.37
2018-08-17T04:11:44.991Z,68.99
2018-08-17T04:14:48.178Z,68.62
2018-08-17T04:17:51.270Z,68.71
2018-08-17T04:20:54.338Z,68.23
2018-08-17T04:23:57.519Z,68.81
2018-08-17T04:27:00.657Z,68.87
2018-08-17T04:30:04.183Z,68.34
2018-08-17T04:33:07.594Z,68.39
2018-08-17T04:36:10.691Z,68.46
2018-08-17T04:39:13.774Z,69.15
2018-08-17T04:42:16.915Z,69.11
2018-08-17T04:45:19.983Z,69.13
2018-08-17T04:48:23.098Z,68.88
2018-08-17T04:51:26.199Z,68.32
2018-08-17T04:54:29.247Z,69.27
2018-08-17T04:57:32.361Z,68.75
2018-08-17T05:00:35.479Z,68.90
2018-08-17T05:03:38.538Z,69.45
2018-08-17T05:06:41.719Z,69.75
2018-08-17T05:09:44.823Z,69.58
2018-08-17T05:12:47.959Z,68.73
2018-08-17T05:15:51.038Z,69.05
2018-08-17T05:18:54.174Z,69.93
2018-08-17T05:21:57.323Z,69.46
2018-08-17T05:25:00.405Z,67.86
2018-08-17T05:28:03.560Z,69.11
2018-08-17T05:31:06.744Z,68.73
2018-08-17T05:34:09.937Z,67.89
2018-08-17T05:37:12.988Z,68.46
2018-08-17T05:40:16.105Z,68.49
2018-08-17T05:43:19.152Z,68.75
2018-08-17T05:46:22.220Z,69.26
2018-08-17T05:49:25.408Z,69.09
2018-08-17T05:52:28.519Z,69.59
2018-08-17T05:55:31.600Z,69.15
2018-08-17T05:58:34.669Z,68.85
2018-08-17T06:01:37.685Z,68.83
2018-08-17T06:04:40.849Z,67.62
2018-08-17T06:07:43.915Z,68.71
2018-08-17T06:10:47.084Z,68.43
2018-08-17T06:13:50.173Z,68.39
2018-08-17T06:16:53.277Z,67.66
2018-08-17T06:19:56.310Z,68.32
2018-08-17T06:22:59.402Z,68.35
2018-08-17T06:26:09.385Z,69.13
2018-08-17T06:29:12.474Z,68.43
2018-08-17T06:32:15.566Z,68.58
2018-08-17T06:35:18.646Z,68.74
2018-08-17T06:38:21.729Z,68.74
2018-08-17T06:41:24.902Z,68.15
2018-08-17T06:44:30.361Z,68.39
2018-08-17T06:47:34.715Z,69.44
2018-08-17T06:50:37.890Z,74.09
2018-08-17T06:53:41.534Z,75.81
2018-08-17T06:56:44.697Z,78.96
2018-08-17T06:59:47.758Z,78.95
2018-08-17T07:02:50.822Z,79.14
2018-08-17T07:05:54.182Z,80.04
2018-08-17T07:08:57.565Z,80.36
2018-08-17T07:12:00.765Z,78.87
2018-08-17T07:15:04.157Z,79.80
2018-08-17T07:18:07.338Z,78.01
2018-08-17T07:21:10.460Z,79.18
2018-08-17T07:24:13.802Z,79.52
2018-08-17T07:27:16.807Z,79.01
2018-08-17T07:30:19.738Z,79.32
2018-08-17T07:33:22.746Z,77.57
2018-08-17T07:36:25.667Z,78.08
2018-08-17T07:39:28.585Z,78.50
2018-08-17T07:42:31.538Z,79.24
2018-08-17T07:45:34.513Z,78.85
2018-08-17T07:48:37.491Z,78.13
2018-08-17T07:51:40.391Z,78.34
2018-08-17T07:54:43.366Z,79.35
2018-08-17T07:57:46.273Z,79.15
2018-08-17T08:00:49.147Z,77.03
2018-08-17T08:03:52.042Z,78.37
2018-08-17T08:06:54.929Z,78.33
2018-08-17T08:09:57.957Z,79.58
2018-08-17T08:13:00.910Z,79.33
2018-08-17T08:16:04.322Z,79.61
2018-08-17T08:19:11.572Z,78.62
2018-08-17T08:22:14.473Z,79.69
2018-08-17T08:25:17.385Z,79.69
2018-08-17T08:28:20.547Z,79.86
2018-08-17T08:31:24.881Z,78.38
2018-08-17T08:34:28.225Z,80.52
2018-08-17T08:37:31.362Z,80.63
2018-08-17T08:40:34.668Z,81.69
2018-08-17T08:43:37.818Z,82.56
2018-08-17T08:46:41.100Z,81.09
2018-08-17T08:49:45.071Z,82.66
2018-08-17T08:52:49.312Z,81.10
2018-08-17T08:55:52.424Z,81.85
2018-08-17T08:58:56.909Z,81.77
2018-08-17T09:02:00.000Z,81.66
2018-08-17T09:05:03.161Z,80.91
2018-08-17T09:08:06.393Z,80.68
2018-08-17T09:11:09.450Z,80.86
2018-08-17T09:14:12.527Z,81.78
2018-08-17T09:17:15.656Z,81.66
2018-08-17T09:20:18.756Z,81.89
2018-08-17T09:23:21.837Z,82.80
2018-08-17T09:26:24.890Z,83.34
2018-08-17T09:29:28.057Z,83.95
2018-08-17T09:32:31.106Z,83.33
2018-08-17T09:35:34.193Z,83.76
2018-08-17T09:38:37.253Z,83.50
2018-08-17T09:41:40.358Z,84.10
2018-08-17T09:44:43.506Z,84.41
2018-08-17T09:47:46.582Z,83.72
2018-08-17T09:50:49.619Z,82.23
2018-08-17T09:53:52.807Z,83.37
2018-08-17T09:56:55.818Z,82.12
2018-08-17T09:59:58.910Z,83.01
2018-08-17T10:03:12.389Z,84.06
2018-08-17T10:06:21.334Z,83.77
2018-08-17T10:09:30.670Z,84.34
2018-08-17T10:12:33.773Z,84.39
2018-08-17T10:15:36.991Z,84.30
2018-08-17T10:18:45.036Z,84.60
2018-08-17T10:21:54.294Z,84.10
2018-08-17T10:25:04.707Z,83.80
2018-08-17T10:28:07.885Z,84.52
2018-08-17T10:34:13.529Z,83.51
2018-08-17T10:37:16.635Z,83.97
2018-08-17T10:40:19.797Z,83.73
2018-08-17T10:43:22.884Z,83.76
2018-08-17T10:46:25.866Z,83.47
2018-08-17T10:49:28.924Z,82.15
2018-08-17T10:52:31.981Z,84.08
2018-08-17T10:55:41.863Z,82.45
2018-08-17T10:58:44.827Z,81.17
2018-08-17T11:01:47.836Z,80.87
2018-08-17T11:04:51.022Z,81.70
2018-08-17T11:07:53.981Z,81.33
2018-08-17T11:10:57.061Z,81.74
2018-08-17T11:14:00.230Z,79.57
2018-08-17T11:17:03.543Z,80.42
2018-08-17T11:20:06.542Z,79.51
2018-08-17T11:23:09.693Z,79.64
2018-08-17T11:26:19.512Z,78.01
2018-08-17T11:29:22.533Z,79.59
2018-08-17T11:32:25.724Z,79.72
2018-08-17T11:35:29.533Z,79.06
2018-08-17T11:38:32.602Z,78.81
2018-08-17T11:41:35.844Z,78.97
2018-08-17T11:44:39.076Z,77.19
2018-08-17T11:47:43.262Z,78.39
2018-08-17T11:50:48.397Z,77.94
2018-08-17T11:53:52.092Z,77.45
2018-08-17T11:56:55.246Z,76.36
2018-08-17T11:59:59.019Z,77.61
2018-08-17T12:03:03.893Z,77.59
2018-08-17T12:06:07.980Z,77.62
2018-08-17T12:09:11.049Z,76.26
2018-08-17T12:12:14.034Z,76.22
2018-08-17T12:15:17.076Z,78.69
2018-08-17T12:18:20.158Z,75.60
2018-08-17T12:21:23.241Z,77.58
2018-08-17T12:24:26.371Z,78.86
2018-08-17T12:27:29.486Z,79.01
2018-08-17T12:30:32.498Z,77.85
2018-08-17T12:33:35.562Z,76.84
2018-08-17T12:36:38.702Z,79.09
2018-08-17T12:39:41.752Z,76.77
2018-08-17T12:42:44.742Z,75.08
2018-08-17T12:45:47.780Z,75.26
2018-08-17T12:48:50.810Z,78.18
2018-08-17T12:51:53.915Z,77.63
2018-08-17T12:57:59.623Z,77.78
2018-08-17T13:01:02.671Z,77.84
2018-08-17T13:04:05.754Z,77.12
2018-08-17T13:07:08.957Z,76.26
2018-08-17T13:10:11.982Z,74.44
2018-08-17T13:13:15.039Z,74.57
2018-08-17T13:16:17.988Z,74.70
2018-08-17T13:19:21.030Z,73.90
2018-08-17T13:22:24.230Z,72.12
2018-08-17T13:25:27.235Z,71.32
2018-08-17T13:28:30.364Z,71.96
2018-08-17T13:31:33.469Z,71.50
2018-08-17T13:34:36.554Z,72.35
2018-08-17T13:37:39.869Z,71.87
2018-08-17T13:40:42.859Z,72.33
2018-08-17T13:43:45.946Z,71.51
2018-08-17T13:46:48.990Z,71.04
2018-08-17T13:49:52.062Z,69.03
2018-08-17T13:52:55.378Z,70.67
2018-08-17T13:55:58.420Z,71.04
2018-08-17T13:59:01.519Z,70.87
2018-08-17T14:02:04.691Z,71.29
2018-08-17T14:05:09.527Z,68.73
2018-08-17T14:08:12.705Z,69.41
2018-08-17T14:11:15.707Z,67.87
2018-08-17T14:14:18.807Z,65.91
2018-08-17T14:17:22.021Z,62.26
2018-08-17T14:20:25.029Z,64.20
2018-08-17T14:23:28.125Z,63.42
2018-08-17T14:26:31.197Z,60.61
2018-08-17T14:29:34.293Z,59.07
2018-08-17T14:32:37.338Z,60.25
2018-08-17T14:35:40.413Z,61.25
2018-08-17T14:38:43.479Z,63.02
2018-08-17T14:41:56.956Z,64.69
2018-08-17T14:45:00.078Z,64.67
2018-08-17T14:48:04.478Z,65.07
2018-08-17T14:51:08.141Z,65.25
2018-08-17T14:54:11.595Z,64.76
2018-08-17T14:57:15.034Z,63.83
2018-08-17T15:00:18.437Z,65.45
2018-08-17T15:03:22.705Z,67.02
2018-08-17T15:06:26.391Z,66.53
2018-08-17T15:09:30.815Z,63.81
2018-08-17T15:12:34.527Z,62.22
2018-08-17T15:15:37.642Z,62.24
2018-08-17T15:18:41.241Z,60.37
2018-08-17T15:21:44.548Z,56.82
2018-08-17T15:24:48.496Z,56.02
2018-08-17T15:27:52.840Z,54.70
2018-08-17T15:30:56.661Z,56.61
2018-08-17T15:34:00.938Z,54.38
2018-08-17T15:37:04.708Z,52.74
2018-08-17T15:40:10.845Z,53.17
2018-08-17T15:43:17.297Z,53.24
2018-08-17T15:46:21.169Z,55.04
2018-08-17T15:49:30.201Z,54.76
2018-08-17T15:52:33.736Z,55.89
2018-08-17T15:55:38.135Z,56.72
2018-08-17T15:58:41.716Z,57.53
2018-08-17T16:01:45.177Z,58.15
2018-08-17T16:04:49.335Z,57.42
2018-08-17T16:07:52.960Z,58.78
2018-08-17T16:10:56.148Z,58.09
2018-08-17T16:13:59.619Z,58.57
2018-08-17T16:17:03.112Z,56.02
2018-08-17T16:20:09.264Z,58.49
2018-08-17T16:23:13.645Z,57.38
2018-08-17T16:26:16.820Z,58.70
2018-08-17T16:29:20.003Z,57.28
2018-08-17T16:32:23.075Z,58.95
2018-08-17T16:35:26.301Z,57.77
2018-08-17T16:38:29.612Z,55.63
2018-08-17T16:41:32.722Z,55.03
2018-08-17T16:44:35.843Z,58.14
2018-08-17T16:47:39.464Z,58.00
2018-08-17T16:50:42.531Z,58.11
2018-08-17T16:53:45.604Z,58.17
2018-08-17T16:56:48.851Z,58.58
2018-08-17T16:59:52.269Z,59.05
2018-08-17T17:02:55.364Z,58.70
2018-08-17T17:06:01.994Z,58.82
2018-08-17T17:09:07.752Z,59.32
2018-08-17T17:12:17.486Z,57.90
2018-08-17T17:15:20.676Z,55.20
2018-08-17T17:18:23.722Z,57.73
2018-08-17T17:21:26.770Z,58.44
2018-08-17T17:24:29.822Z,59.08
2018-08-17T17:27:33.237Z,59.27
2018-08-17T17:30:43.670Z,59.53
2018-08-17T17:33:46.794Z,59.09
2018-08-17T17:36:49.883Z,58.54
2018-08-17T17:39:52.945Z,58.54
2018-08-17T17:42:56.085Z,58.60
2018-08-17T17:45:59.191Z,61.25
2018-08-17T17:49:02.271Z,65.21
2018-08-17T17:52:05.361Z,63.14
2018-08-17T17:55:08.569Z,65.88
2018-08-17T17:58:11.863Z,66.00
2018-08-17T18:01:14.867Z,67.03
2018-08-17T18:04:17.952Z,67.77
2018-08-17T18:07:21.406Z,68.03
2018-08-17T18:10:24.562Z,68.43
2018-08-17T18:13:28.330Z,68.29
2018-08-17T18:16:31.438Z,68.51
2018-08-17T18:19:34.939Z,68.50
2018-08-17T18:22:38.797Z,68.69
2018-08-17T18:25:42.363Z,68.37
2018-08-17T18:28:45.735Z,68.90
2018-08-17T18:31:49.264Z,68.67
2018-08-17T18:34:52.714Z,69.05
2018-08-17T18:37:56.811Z,68.48
2018-08-17T18:41:00.223Z,68.23
2018-08-17T18:44:03.413Z,68.42
2018-08-17T18:47:06.466Z,68.28
2018-08-17T18:50:09.614Z,68.47
2018-08-17T18:53:12.776Z,68.34
2018-08-17T18:56:16.260Z,68.55
2018-08-17T18:59:19.628Z,68.39
2018-08-17T19:02:22.876Z,67.91
2018-08-17T19:05:26.163Z,68.07
2018-08-17T19:08:29.583Z,67.95
2018-08-17T19:11:34.274Z,68.16
2018-08-17T19:14:45.257Z,68.18
2018-08-17T19:17:48.846Z,68.22
2018-08-17T19:20:52.332Z,67.66
2018-08-17T19:23:55.886Z,67.73
2018-08-17T19:27:00.017Z,68.00
2018-08-17T19:30:11.094Z,67.96
2018-08-17T19:33:14.533Z,67.66
2018-08-17T19:36:17.993Z,67.61
2018-08-17T19:39:25.906Z,67.29
2018-08-17T19:42:29.282Z,67.18
2018-08-17T19:45:33.073Z,67.21
2018-08-17T19:48:36.668Z,67.56
2018-08-17T19:51:40.199Z,67.32
2018-08-17T19:54:43.495Z,66.96
2018-08-17T19:57:46.555Z,66.67
2018-08-17T20:00:49.805Z,66.79
2018-08-17T20:03:53.579Z,66.87
2018-08-17T20:06:57.302Z,66.73
2018-08-17T20:10:00.956Z,66.70
2018-08-17T20:13:04.531Z,67.00
2018-08-17T20:16:23.941Z,66.69
2018-08-17T20:19:35.583Z,66.39
2018-08-17T20:22:39.008Z,66.97
2018-08-17T20:25:42.275Z,66.97
2018-08-17T20:28:46.060Z,66.68
2018-08-17T20:31:49.328Z,67.22
2018-08-17T20:34:52.953Z,67.23
2018-08-17T20:37:56.424Z,67.20
2018-08-17T20:41:00.454Z,67.51
2018-08-17T20:44:04.541Z,67.72
2018-08-17T20:47:14.772Z,67.88
2018-08-17T20:50:19.180Z,67.84
2018-08-17T20:53:22.787Z,68.43
2018-08-17T20:56:27.012Z,68.54
2018-08-17T20:59:31.111Z,69.30
2018-08-17T21:02:34.465Z,69.08
2018-08-17T21:05:37.697Z,68.31
2018-08-17T21:08:40.842Z,68.30
2018-08-17T21:11:44.100Z,68.46
2018-08-17T21:14:47.285Z,68.41
2018-08-17T21:17:51.433Z,68.61
2018-08-17T21:20:54.631Z,68.66
2018-08-17T21:23:57.909Z,68.15
2018-08-17T21:27:01.923Z,69.01
2018-08-17T21:30:06.466Z,68.63
2018-08-17T21:33:12.208Z,68.43
2018-08-17T21:36:29.643Z,69.02
2018-08-17T21:39:36.021Z,68.32
2018-08-17T21:42:39.215Z,69.09
2018-08-17T21:45:44.841Z,68.55
2018-08-17T21:48:48.105Z,68.58
2018-08-17T21:52:02.405Z,68.14
2018-08-17T21:55:05.671Z,68.61
2018-08-17T21:58:08.842Z,68.17
2018-08-17T22:01:12.013Z,67.98
2018-08-17T22:04:15.276Z,68.49
2018-08-17T22:07:20.728Z,68.43
2018-08-17T22:10:23.979Z,68.18
2018-08-17T22:13:35.144Z,67.93
2018-08-17T22:16:38.341Z,69.23
2018-08-17T22:19:42.446Z,68.82
2018-08-17T22:22:45.685Z,68.82
2018-08-17T22:25:48.974Z,69.56
2018-08-17T22:28:52.337Z,69.95
2018-08-17T22:31:55.480Z,69.09
2018-08-17T22:34:58.725Z,69.65
2018-08-17T22:38:02.022Z,69.58
2018-08-17T22:41:07.068Z,68.51
2018-08-17T22:44:15.788Z,69.21
2018-08-17T22:47:25.086Z,69.71
2018-08-17T22:50:28.266Z,69.87
2018-08-17T22:53:31.442Z,69.52
2018-08-17T22:56:34.674Z,70.05
2018-08-17T22:59:37.932Z,70.04
2018-08-17T23:02:42.278Z,70.18
2018-08-17T23:05:45.479Z,70.69
2018-08-17T23:08:48.741Z,71.16
2018-08-17T23:11:51.881Z,70.19
2018-08-17T23:14:55.155Z,70.93
2018-08-17T23:17:59.883Z,71.21
2018-08-17T23:21:03.100Z,70.94
2018-08-17T23:24:06.666Z,71.77
2018-08-17T23:27:09.828Z,71.43
2018-08-17T23:30:13.160Z,71.04
2018-08-17T23:33:16.354Z,70.69
2018-08-17T23:36:19.637Z,71.11
2018-08-17T23:39:22.910Z,71.46
2018-08-17T23:42:26.154Z,71.68
2018-08-17T23:45:29.359Z,71.74
2018-08-17T23:48:32.550Z,72.04
2018-08-17T23:51:35.711Z,71.95
2018-08-17T23:54:39.080Z,71.18
2018-08-17T23:57:42.394Z,71.70
